createdAt,value
2023-04-06T00:01:12.968Z,0.06
2023-04-06T00:04:14.638Z,0.04
2023-04-06T00:07:16.424Z,0.01
2023-04-06T00:10:18.242Z,-0.03
2023-04-06T00:13:19.820Z,-0.05
2023-04-06T00:16:23.664Z,-0.07
2023-04-06T00:19:26.492Z,-0.09
2023-04-06T00:22:28.059Z,-0.13
2023-04-06T00:25:29.628Z,-0.14
2023-04-06T00:28:31.191Z,-0.17
2023-04-06T00:31:32.797Z,-0.20
2023-04-06T00:34:34.375Z,-0.23
2023-04-06T00:37:36.110Z,-0.26
2023-04-06T00:40:37.724Z,-0.30
2023-04-06T00:43:39.457Z,-0.36
2023-04-06T00:46:41.223Z,-0.39
2023-04-06T00:49:42.803Z,-0.42
2023-04-06T00:52:44.366Z,-0.51
2023-04-06T00:55:45.993Z,-0.58
2023-04-06T00:58:47.716Z,-0.60
2023-04-06T01:01:49.423Z,-0.61
2023-04-06T01:04:51.077Z,-0.63
2023-04-06T01:07:52.693Z,-0.66
2023-04-06T01:10:54.241Z,-0.67
2023-04-06T01:13:56.366Z,-0.69
2023-04-06T01:16:59.716Z,-0.71
2023-04-06T01:20:01.444Z,-0.74
2023-04-06T01:23:03.202Z,-0.76
2023-04-06T01:26:04.886Z,-0.81
2023-04-06T01:29:06.739Z,-0.84
2023-04-06T01:32:09.020Z,-0.86
2023-04-06T01:35:10.740Z,-0.87
2023-04-06T01:38:12.315Z,-0.89
2023-04-06T01:41:13.970Z,-0.91
2023-04-06T01:44:22.333Z,-0.93
2023-04-06T01:47:23.943Z,-0.96
2023-04-06T01:50:25.601Z,-1.00
2023-04-06T01:53:27.156Z,-1.04
2023-04-06T01:56:28.743Z,-1.08
2023-04-06T01:59:30.628Z,-1.10
2023-04-06T02:02:32.388Z,-1.11
2023-04-06T02:05:38.832Z,-1.13
2023-04-06T02:08:40.626Z,-1.16
2023-04-06T02:11:42.191Z,-1.20
2023-04-06T02:14:43.811Z,-1.23
2023-04-06T02:17:45.817Z,-1.25
2023-04-06T02:20:47.468Z,-1.26
2023-04-06T02:23:50.429Z,-1.26
2023-04-06T02:26:52.084Z,-1.28
2023-04-06T02:29:53.663Z,-1.30
2023-04-06T02:32:55.689Z,-1.31
2023-04-06T02:35:57.344Z,-1.33
2023-04-06T02:38:58.967Z,-1.36
2023-04-06T02:42:00.954Z,-1.39
2023-04-06T02:45:03.043Z,-1.39
2023-04-06T02:48:05.035Z,-1.42
2023-04-06T02:51:07.076Z,-1.46
2023-04-06T02:54:08.694Z,-1.50
2023-04-06T02:57:10.298Z,-1.53
2023-04-06T03:00:13.065Z,-1.55
2023-04-06T03:03:14.933Z,-1.57
2023-04-06T03:06:16.598Z,-1.58
2023-04-06T03:09:18.255Z,-1.58
2023-04-06T03:12:19.842Z,-1.58
2023-04-06T03:15:21.519Z,-1.57
2023-04-06T03:18:25.048Z,-1.50
2023-04-06T03:21:26.629Z,-1.38
2023-04-06T03:24:28.328Z,-1.39
2023-04-06T03:27:30.241Z,-1.42
2023-04-06T03:30:31.870Z,-1.47
2023-04-06T03:33:33.533Z,-1.52
2023-04-06T03:36:35.895Z,-1.57
2023-04-06T03:39:37.782Z,-1.63
2023-04-06T03:42:39.370Z,-1.65
2023-04-06T03:45:41.026Z,-1.68
2023-04-06T03:48:42.595Z,-1.69
2023-04-06T03:51:44.198Z,-1.74
2023-04-06T03:54:45.782Z,-1.77
2023-04-06T03:57:47.389Z,-1.80
2023-04-06T04:00:48.975Z,-1.85
2023-04-06T04:03:51.950Z,-1.89
2023-04-06T04:06:53.679Z,-1.94
2023-04-06T04:09:55.321Z,-1.99
2023-04-06T04:12:56.898Z,-2.04
2023-04-06T04:15:58.819Z,-2.09
2023-04-06T04:19:00.498Z,-2.14
2023-04-06T04:22:05.412Z,-2.21
2023-04-06T04:25:07.264Z,-2.28
2023-04-06T04:28:08.825Z,-2.32
2023-04-06T04:31:10.412Z,-2.34
2023-04-06T04:34:11.995Z,-2.31
2023-04-06T04:37:13.545Z,-2.32
2023-04-06T04:40:15.507Z,-2.32
2023-04-06T04:43:17.338Z,-2.29
2023-04-06T04:46:18.882Z,-2.30
2023-04-06T04:49:20.620Z,-2.31
2023-04-06T04:52:22.187Z,-2.33
2023-04-06T04:55:23.754Z,-2.32
2023-04-06T04:58:25.378Z,-2.31
2023-04-06T05:01:26.926Z,-2.28
2023-04-06T05:04:28.552Z,-2.25
2023-04-06T05:07:30.253Z,-2.21
2023-04-06T05:10:31.901Z,-2.15
2023-04-06T05:13:33.492Z,-2.10
2023-04-06T05:16:35.331Z,-2.04
2023-04-06T05:19:37.085Z,-2.00
2023-04-06T05:22:38.665Z,-1.94
2023-04-06T05:25:40.307Z,-1.88
2023-04-06T05:28:43.526Z,-1.80
2023-04-06T05:31:45.277Z,-1.66
2023-04-06T05:34:46.971Z,-1.54
2023-04-06T05:37:48.545Z,-1.43
2023-04-06T05:40:50.150Z,-1.32
2023-04-06T05:43:51.683Z,-1.18
2023-04-06T05:46:53.726Z,-1.03
2023-04-06T05:49:55.493Z,-0.91
2023-04-06T05:52:57.126Z,-0.79
2023-04-06T05:56:02.056Z,-0.67
2023-04-06T05:59:03.673Z,-0.56
2023-04-06T06:02:05.474Z,-0.43
2023-04-06T06:05:07.383Z,-0.26
2023-04-06T06:08:09.151Z,-0.10
2023-04-06T06:11:10.781Z,0.05
2023-04-06T06:14:12.371Z,0.18
2023-04-06T06:17:16.190Z,0.29
2023-04-06T06:20:17.942Z,0.41
2023-04-06T06:23:19.523Z,0.47
2023-04-06T06:26:21.367Z,0.51
2023-04-06T06:29:24.868Z,0.58
2023-04-06T06:32:27.257Z,0.69
2023-04-06T06:35:28.905Z,0.77
2023-04-06T06:38:30.638Z,0.81
2023-04-06T06:41:32.295Z,0.87
2023-04-06T06:44:33.947Z,0.93
2023-04-06T06:47:35.716Z,0.98
2023-04-06T06:50:37.515Z,1.06
2023-04-06T06:53:39.179Z,1.16
2023-04-06T06:56:40.952Z,1.25
2023-04-06T06:59:42.616Z,1.36
2023-04-06T07:02:44.316Z,1.44
2023-04-06T07:05:54.227Z,1.51
2023-04-06T07:08:56.173Z,1.63
2023-04-06T07:11:57.806Z,1.75
2023-04-06T07:14:59.360Z,1.87
2023-04-06T07:18:01.016Z,2.32
2023-04-06T07:21:02.593Z,2.64
2023-04-06T07:24:04.298Z,2.81
2023-04-06T07:27:05.998Z,2.98
2023-04-06T07:30:08.488Z,3.14
2023-04-06T07:33:10.091Z,3.28
2023-04-06T07:36:11.867Z,3.39
2023-04-06T07:39:13.659Z,3.56
2023-04-06T07:42:15.456Z,3.69
2023-04-06T07:45:17.158Z,3.81
2023-04-06T07:48:18.729Z,3.92
2023-04-06T07:51:20.745Z,4.00
2023-04-06T07:54:22.480Z,4.08
2023-04-06T07:57:24.087Z,4.14
2023-04-06T08:00:25.974Z,4.18
2023-04-06T08:03:27.837Z,4.25
2023-04-06T08:06:29.763Z,4.31
2023-04-06T08:09:31.462Z,4.37
2023-04-06T08:12:34.953Z,4.41
2023-04-06T08:15:36.669Z,4.46
2023-04-06T08:18:38.354Z,4.52
2023-04-06T08:21:41.058Z,4.57
2023-04-06T08:24:42.930Z,4.61
2023-04-06T08:27:44.533Z,4.65
2023-04-06T08:30:46.330Z,4.69
2023-04-06T08:33:47.927Z,4.79
2023-04-06T08:36:49.564Z,4.86
2023-04-06T08:39:51.372Z,4.97
2023-04-06T08:42:57.588Z,5.06
2023-04-06T08:46:00.193Z,5.18
2023-04-06T08:49:03.342Z,5.28
2023-04-06T08:52:11.597Z,5.39
2023-04-06T08:55:13.182Z,5.52
2023-04-06T08:58:24.123Z,5.64
2023-04-06T09:01:30.629Z,5.74
2023-04-06T09:04:34.342Z,5.83
2023-04-06T09:07:36.998Z,5.88
2023-04-06T09:10:41.974Z,5.93
2023-04-06T09:13:48.778Z,5.96
2023-04-06T09:16:50.411Z,6.01
2023-04-06T09:19:52.682Z,6.07
2023-04-06T09:22:54.594Z,6.20
2023-04-06T09:26:11.536Z,6.35
2023-04-06T09:29:23.471Z,6.53
2023-04-06T09:32:25.161Z,6.68
2023-04-06T09:35:31.389Z,6.80
2023-04-06T09:38:33.043Z,6.93
2023-04-06T09:41:36.637Z,7.07
2023-04-06T09:44:38.349Z,7.27
2023-04-06T09:47:43.763Z,7.51
2023-04-06T09:50:45.853Z,7.70
2023-04-06T09:53:53.119Z,7.83
2023-04-06T09:57:03.348Z,7.91
2023-04-06T10:00:12.253Z,8.08
2023-04-06T10:03:46.398Z,8.25
2023-04-06T10:06:53.307Z,8.31
2023-04-06T10:09:56.110Z,8.40
2023-04-06T10:12:58.689Z,8.46
2023-04-06T10:16:02.607Z,8.53
2023-04-06T10:19:29.086Z,8.57
2023-04-06T10:22:44.099Z,8.72
2023-04-06T10:25:59.247Z,8.95
2023-04-06T10:29:04.961Z,9.11
2023-04-06T10:32:06.546Z,9.21
2023-04-06T10:35:09.085Z,9.28
2023-04-06T10:38:11.000Z,9.45
2023-04-06T10:41:13.174Z,9.60
2023-04-06T10:44:27.108Z,9.72
2023-04-06T10:47:28.693Z,9.94
2023-04-06T10:50:30.791Z,10.09
2023-04-06T10:53:34.314Z,10.27
2023-04-06T10:56:38.232Z,10.41
2023-04-06T10:59:43.503Z,10.51
2023-04-06T11:02:45.141Z,10.57
2023-04-06T11:05:50.747Z,10.65
2023-04-06T11:08:53.009Z,10.77
2023-04-06T11:11:55.385Z,10.87
2023-04-06T11:15:07.123Z,10.90
2023-04-06T11:18:08.926Z,10.92
2023-04-06T11:21:10.866Z,11.01
2023-04-06T11:24:13.789Z,11.06
2023-04-06T11:27:17.126Z,10.99
2023-04-06T11:30:19.309Z,11.00
2023-04-06T11:33:23.914Z,11.12
2023-04-06T11:36:31.141Z,11.19
2023-04-06T11:39:38.234Z,11.31
2023-04-06T11:42:39.911Z,11.48
2023-04-06T11:45:44.818Z,11.61
2023-04-06T11:48:47.443Z,11.68
2023-04-06T11:51:49.132Z,11.74
2023-04-06T11:54:52.857Z,11.78
2023-04-06T11:57:54.541Z,11.84
2023-04-06T12:01:04.537Z,11.92
2023-04-06T12:04:06.190Z,11.92
2023-04-06T12:07:10.054Z,11.97
2023-04-06T12:10:11.923Z,12.07
2023-04-06T12:13:13.640Z,12.20
2023-04-06T12:16:15.663Z,12.26
2023-04-06T12:19:17.445Z,12.31
2023-04-06T12:22:19.192Z,12.31
2023-04-06T12:25:21.164Z,12.23
2023-04-06T12:28:26.748Z,12.26
2023-04-06T12:31:28.619Z,12.20
2023-04-06T12:34:30.310Z,12.20
2023-04-06T12:37:31.883Z,12.16
2023-04-06T12:40:37.922Z,12.20
2023-04-06T12:43:44.175Z,12.21
2023-04-06T12:46:46.485Z,12.22
2023-04-06T12:49:48.070Z,12.16
2023-04-06T12:52:49.680Z,12.17
2023-04-06T12:55:51.293Z,12.25
2023-04-06T12:58:53.528Z,12.40
2023-04-06T13:01:55.392Z,12.56
2023-04-06T13:04:57.005Z,12.68
2023-04-06T13:07:58.553Z,12.72
2023-04-06T13:11:00.126Z,12.79
2023-04-06T13:14:01.683Z,12.84
2023-04-06T13:17:03.223Z,12.81
2023-04-06T13:20:05.439Z,12.70
2023-04-06T13:23:07.007Z,12.60
2023-04-06T13:26:09.023Z,12.52
2023-04-06T13:29:10.645Z,12.48
2023-04-06T13:32:12.341Z,12.53
2023-04-06T13:35:14.312Z,12.59
2023-04-06T13:38:16.184Z,12.49
2023-04-06T13:41:24.529Z,12.47
2023-04-06T13:44:26.107Z,12.51
2023-04-06T13:47:28.574Z,12.48
2023-04-06T13:50:30.425Z,12.45
2023-04-06T13:53:31.989Z,12.45
2023-04-06T13:56:33.500Z,12.50
2023-04-06T13:59:39.301Z,12.53
2023-04-06T14:02:41.155Z,12.55
2023-04-06T14:05:42.942Z,12.60
2023-04-06T14:08:44.555Z,12.58
2023-04-06T14:11:46.241Z,12.61
2023-04-06T14:14:47.780Z,12.67
2023-04-06T14:17:49.648Z,12.66
2023-04-06T14:20:57.381Z,12.70
2023-04-06T14:23:59.854Z,12.67
2023-04-06T14:27:02.103Z,12.57
2023-04-06T14:30:04.106Z,12.51
2023-04-06T14:33:05.940Z,12.49
2023-04-06T14:36:08.344Z,12.40
2023-04-06T14:39:10.931Z,12.28
2023-04-06T14:42:12.468Z,12.14
2023-04-06T14:45:14.118Z,12.00
2023-04-06T14:48:16.849Z,11.89
2023-04-06T14:51:18.426Z,11.80
2023-04-06T14:54:19.970Z,11.74
2023-04-06T14:57:21.488Z,11.70
2023-04-06T15:00:23.265Z,11.64
2023-04-06T15:03:26.613Z,11.62
2023-04-06T15:06:28.313Z,11.59
2023-04-06T15:09:30.341Z,11.58
2023-04-06T15:12:33.208Z,11.55
2023-04-06T15:15:34.804Z,11.51
2023-04-06T15:18:36.560Z,11.49
2023-04-06T15:21:38.186Z,11.44
2023-04-06T15:24:39.717Z,11.40
2023-04-06T15:27:41.326Z,11.34
2023-04-06T15:30:42.921Z,11.34
2023-04-06T15:33:45.029Z,11.35
2023-04-06T15:36:46.811Z,11.36
2023-04-06T15:39:48.389Z,11.34
2023-04-06T15:42:50.836Z,11.29
2023-04-06T15:45:53.843Z,11.30
2023-04-06T15:48:55.665Z,11.35
2023-04-06T15:51:57.333Z,11.37
2023-04-06T15:54:59.032Z,11.37
2023-04-06T15:58:00.832Z,11.31
2023-04-06T16:01:11.783Z,11.23
2023-04-06T16:04:14.894Z,11.15
2023-04-06T16:07:16.774Z,11.02
2023-04-06T16:10:18.479Z,10.92
2023-04-06T16:13:21.534Z,10.87
2023-04-06T16:16:24.183Z,10.86
2023-04-06T16:19:25.977Z,10.85
2023-04-06T16:22:28.742Z,10.84
2023-04-06T16:25:30.702Z,10.82
2023-04-06T16:28:33.122Z,10.81
2023-04-06T16:31:34.745Z,10.78
2023-04-06T16:34:36.649Z,10.74
2023-04-06T16:37:38.220Z,10.66
2023-04-06T16:40:41.031Z,10.59
2023-04-06T16:43:42.759Z,10.55
2023-04-06T16:46:44.599Z,10.50
2023-04-06T16:49:46.551Z,10.47
2023-04-06T16:52:48.122Z,10.43
2023-04-06T16:55:49.689Z,10.40
2023-04-06T16:58:51.350Z,10.33
2023-04-06T17:01:53.068Z,10.23
2023-04-06T17:04:54.680Z,10.17
2023-04-06T17:07:56.398Z,10.10
2023-04-06T17:11:02.559Z,10.04
2023-04-06T17:14:04.401Z,9.97
2023-04-06T17:17:06.837Z,9.90
2023-04-06T17:20:08.981Z,9.83
2023-04-06T17:23:10.809Z,9.73
2023-04-06T17:26:12.479Z,9.62
2023-04-06T17:29:14.053Z,9.51
2023-04-06T17:32:16.589Z,9.39
2023-04-06T17:35:18.166Z,9.28
2023-04-06T17:38:19.971Z,9.21
2023-04-06T17:41:21.822Z,9.12
2023-04-06T17:44:23.435Z,9.06
2023-04-06T17:47:25.809Z,8.99
2023-04-06T17:50:27.439Z,8.94
2023-04-06T17:53:34.429Z,8.90
2023-04-06T17:56:35.990Z,8.84
2023-04-06T17:59:37.615Z,8.77
2023-04-06T18:02:39.299Z,8.72
2023-04-06T18:05:41.460Z,8.64
2023-04-06T18:08:43.294Z,8.58
2023-04-06T18:11:45.444Z,8.73
2023-04-06T18:14:47.102Z,8.62
2023-04-06T18:17:50.525Z,8.53
2023-04-06T18:20:52.098Z,8.44
2023-04-06T18:23:54.657Z,8.33
2023-04-06T18:26:57.620Z,8.23
2023-04-06T18:30:01.043Z,8.18
2023-04-06T18:33:02.943Z,8.18
2023-04-06T18:36:04.997Z,8.14
2023-04-06T18:39:06.599Z,8.05
2023-04-06T18:42:08.130Z,7.98
2023-04-06T18:45:10.044Z,7.90
2023-04-06T18:48:11.804Z,7.83
2023-04-06T18:51:13.563Z,7.76
2023-04-06T18:54:15.629Z,7.69
2023-04-06T18:57:17.225Z,7.55
2023-04-06T19:00:18.883Z,7.40
2023-04-06T19:03:22.174Z,7.26
2023-04-06T19:06:24.842Z,7.14
2023-04-06T19:09:27.553Z,7.05
2023-04-06T19:12:29.168Z,6.97
2023-04-06T19:15:31.369Z,6.88
2023-04-06T19:18:32.966Z,6.80
2023-04-06T19:21:34.549Z,6.71
2023-04-06T19:24:36.246Z,6.66
2023-04-06T19:27:37.926Z,6.61
2023-04-06T19:30:41.274Z,6.59
2023-04-06T19:33:43.660Z,6.59
2023-04-06T19:36:45.905Z,6.63
2023-04-06T19:39:47.859Z,6.63
2023-04-06T19:42:49.396Z,6.65
2023-04-06T19:45:51.380Z,6.64
2023-04-06T19:48:53.091Z,6.63
2023-04-06T19:51:57.579Z,6.60
2023-04-06T19:55:00.287Z,6.51
2023-04-06T19:58:01.960Z,6.42
2023-04-06T20:01:04.420Z,6.34
2023-04-06T20:04:07.035Z,6.25
2023-04-06T20:07:08.871Z,6.16
2023-04-06T20:10:10.818Z,6.08
2023-04-06T20:13:12.605Z,6.02
2023-04-06T20:16:15.412Z,5.96
2023-04-06T20:19:17.029Z,5.87
2023-04-06T20:22:18.613Z,5.84
2023-04-06T20:25:22.100Z,5.85
2023-04-06T20:28:24.314Z,5.83
2023-04-06T20:31:27.542Z,5.81
2023-04-06T20:34:29.852Z,5.77
2023-04-06T20:37:31.430Z,5.72
2023-04-06T20:40:32.960Z,5.66
2023-04-06T20:43:35.569Z,5.60
2023-04-06T20:46:37.237Z,5.53
2023-04-06T20:49:38.816Z,5.47
2023-04-06T20:52:40.401Z,5.42
2023-04-06T20:55:42.145Z,5.36
2023-04-06T20:58:43.754Z,5.33
2023-04-06T21:01:45.564Z,5.29
2023-04-06T21:04:48.527Z,5.26
2023-04-06T21:07:50.394Z,5.24
2023-04-06T21:10:51.974Z,5.21
2023-04-06T21:13:53.530Z,5.19
2023-04-06T21:16:55.883Z,5.17
2023-04-06T21:19:57.460Z,5.14
2023-04-06T21:22:59.008Z,5.10
2023-04-06T21:26:02.051Z,5.06
2023-04-06T21:29:03.652Z,5.02
2023-04-06T21:32:05.483Z,4.98
2023-04-06T21:35:07.630Z,4.91
2023-04-06T21:38:09.265Z,4.85
2023-04-06T21:41:10.960Z,4.86
2023-04-06T21:44:12.515Z,4.85
2023-04-06T21:47:14.041Z,4.84
2023-04-06T21:50:16.353Z,4.76
2023-04-06T21:53:18.308Z,4.68
2023-04-06T21:56:22.136Z,4.63
2023-04-06T21:59:23.688Z,4.63
2023-04-06T22:02:25.557Z,4.63
2023-04-06T22:05:27.293Z,4.61
2023-04-06T22:08:33.808Z,4.56
2023-04-06T22:11:36.063Z,4.47
2023-04-06T22:14:37.667Z,4.41
2023-04-06T22:17:40.259Z,4.64
2023-04-06T22:20:41.881Z,4.61
2023-04-06T22:23:43.445Z,4.57
2023-04-06T22:26:45.008Z,4.52
2023-04-06T22:29:46.557Z,4.42
2023-04-06T22:32:48.126Z,4.32
2023-04-06T22:35:49.760Z,4.25
2023-04-06T22:38:51.501Z,4.18
2023-04-06T22:41:53.047Z,4.11
2023-04-06T22:44:54.574Z,4.07
2023-04-06T22:47:56.163Z,4.01
2023-04-06T22:50:57.771Z,4.00
2023-04-06T22:53:59.359Z,3.98
2023-04-06T22:57:01.199Z,3.99
2023-04-06T23:00:05.833Z,3.99
2023-04-06T23:03:07.474Z,3.99
2023-04-06T23:06:09.255Z,4.00
2023-04-06T23:09:10.861Z,4.00
2023-04-06T23:12:12.417Z,3.97
2023-04-06T23:15:14.535Z,3.95
2023-04-06T23:18:16.394Z,3.90
2023-04-06T23:21:17.969Z,3.88
2023-04-06T23:24:19.514Z,3.84
2023-04-06T23:27:21.071Z,3.82
2023-04-06T23:30:22.846Z,3.78
2023-04-06T23:33:24.483Z,3.76
2023-04-06T23:36:26.969Z,3.71
2023-04-06T23:39:31.082Z,3.69
2023-04-06T23:42:32.679Z,3.71
2023-04-06T23:45:34.393Z,3.72
2023-04-06T23:48:36.173Z,3.71
2023-04-06T23:51:37.713Z,3.68
2023-04-06T23:54:39.268Z,3.65
2023-04-06T23:57:40.944Z,3.63
